sensor_id;sensor_type;location;lat;lon;timestamp;temperature;humidity
13203;DHT22;6666;51.626;7.530;2023-07-09T00:01:49;21.80;99.90
13203;DHT22;6666;51.626;7.530;2023-07-09T00:04:17;21.80;99.90
13203;DHT22;6666;51.626;7.530;2023-07-09T00:06:46;21.70;99.90
13203;DHT22;6666;51.626;7.530;2023-07-09T00:09:16;21.60;99.90
13203;DHT22;6666;51.626;7.530;2023-07-09T00:11:46;21.70;99.90
13203;DHT22;6666;51.626;7.530;2023-07-09T00:14:16;21.80;99.90
13203;DHT22;6666;51.626;7.530;2023-07-09T00:16:45;21.70;99.90
13203;DHT22;6666;51.626;7.530;2023-07-09T00:19:18;21.60;99.90
13203;DHT22;6666;51.626;7.530;2023-07-09T00:21:48;21.50;99.90
13203;DHT22;6666;51.626;7.530;2023-07-09T00:24:20;21.50;99.90
13203;DHT22;6666;51.626;7.530;2023-07-09T00:26:50;21.50;99.90
13203;DHT22;6666;51.626;7.530;2023-07-09T00:33:27;21.60;99.90
13203;DHT22;6666;51.626;7.530;2023-07-09T00:35:58;21.60;99.90
13203;DHT22;6666;51.626;7.530;2023-07-09T00:38:28;21.50;99.90
13203;DHT22;6666;51.626;7.530;2023-07-09T00:41:02;21.30;99.90
13203;DHT22;6666;51.626;7.530;2023-07-09T00:43:34;21.30;99.90
13203;DHT22;6666;51.626;7.530;2023-07-09T00:49:02;21.30;99.90
13203;DHT22;6666;51.626;7.530;2023-07-09T00:51:34;21.20;99.90
13203;DHT22;6666;51.626;7.530;2023-07-09T00:54:10;21.30;99.90
13203;DHT22;6666;51.626;7.530;2023-07-09T00:56:45;21.40;99.90
13203;DHT22;6666;51.626;7.530;2023-07-09T00:59:22;21.50;99.90
13203;DHT22;6666;51.626;7.530;2023-07-09T01:01:53;21.40;99.90
13203;DHT22;6666;51.626;7.530;2023-07-09T01:04:22;21.30;99.90
13203;DHT22;6666;51.626;7.530;2023-07-09T01:06:52;21.10;99.90
13203;DHT22;6666;51.626;7.530;2023-07-09T01:09:21;21.10;99.90
13203;DHT22;6666;51.626;7.530;2023-07-09T01:11:50;21.10;99.90
13203;DHT22;6666;51.626;7.530;2023-07-09T01:14:24;21.40;99.90
13203;DHT22;6666;51.626;7.530;2023-07-09T01:16:57;21.50;99.90
13203;DHT22;6666;51.626;7.530;2023-07-09T01:19:28;21.40;99.90
13203;DHT22;6666;51.626;7.530;2023-07-09T01:22:00;21.10;99.90
13203;DHT22;6666;51.626;7.530;2023-07-09T01:24:48;21.10;99.90
13203;DHT22;6666;51.626;7.530;2023-07-09T01:27:20;21.10;99.90
13203;DHT22;6666;51.626;7.530;2023-07-09T01:29:50;21.00;99.90
13203;DHT22;6666;51.626;7.530;2023-07-09T01:32:19;21.00;99.90
13203;DHT22;6666;51.626;7.530;2023-07-09T01:34:50;21.00;99.90
13203;DHT22;6666;51.626;7.530;2023-07-09T01:37:24;21.10;99.90
13203;DHT22;6666;51.626;7.530;2023-07-09T01:39:53;21.00;99.90
13203;DHT22;6666;51.626;7.530;2023-07-09T01:42:24;20.90;99.90
13203;DHT22;6666;51.626;7.530;2023-07-09T01:44:54;20.80;99.90
13203;DHT22;6666;51.626;7.530;2023-07-09T01:47:23;20.70;99.90
13203;DHT22;6666;51.626;7.530;2023-07-09T01:49:53;20.60;99.90
13203;DHT22;6666;51.626;7.530;2023-07-09T01:52:29;20.60;99.90
13203;DHT22;6666;51.626;7.530;2023-07-09T01:54:57;20.80;99.90
13203;DHT22;6666;51.626;7.530;2023-07-09T01:57:27;20.90;99.90
13203;DHT22;6666;51.626;7.530;2023-07-09T02:00:03;21.00;99.90
13203;DHT22;6666;51.626;7.530;2023-07-09T02:02:40;21.00;99.90
13203;DHT22;6666;51.626;7.530;2023-07-09T02:05:11;21.00;99.90
13203;DHT22;6666;51.626;7.530;2023-07-09T02:07:41;20.80;99.90
13203;DHT22;6666;51.626;7.530;2023-07-09T02:10:11;20.80;99.90
13203;DHT22;6666;51.626;7.530;2023-07-09T02:12:39;20.80;99.90
13203;DHT22;6666;51.626;7.530;2023-07-09T02:15:10;20.70;99.90
13203;DHT22;6666;51.626;7.530;2023-07-09T02:17:39;20.70;99.90
13203;DHT22;6666;51.626;7.530;2023-07-09T02:20:08;20.70;99.90
13203;DHT22;6666;51.626;7.530;2023-07-09T02:22:38;20.50;99.90
13203;DHT22;6666;51.626;7.530;2023-07-09T02:25:08;20.60;99.90
13203;DHT22;6666;51.626;7.530;2023-07-09T02:27:38;20.60;99.90
13203;DHT22;6666;51.626;7.530;2023-07-09T02:30:07;20.70;99.90
13203;DHT22;6666;51.626;7.530;2023-07-09T02:32:35;20.70;99.90
13203;DHT22;6666;51.626;7.530;2023-07-09T02:35:04;20.60;99.90
13203;DHT22;6666;51.626;7.530;2023-07-09T02:37:32;20.50;99.90
13203;DHT22;6666;51.626;7.530;2023-07-09T02:40:01;20.30;99.90
13203;DHT22;6666;51.626;7.530;2023-07-09T02:42:31;20.40;99.90
13203;DHT22;6666;51.626;7.530;2023-07-09T02:44:59;20.40;99.90
13203;DHT22;6666;51.626;7.530;2023-07-09T02:47:30;20.50;99.90
13203;DHT22;6666;51.626;7.530;2023-07-09T02:50:00;20.60;99.90
13203;DHT22;6666;51.626;7.530;2023-07-09T02:52:29;20.40;99.90
13203;DHT22;6666;51.626;7.530;2023-07-09T02:54:57;20.40;99.90
13203;DHT22;6666;51.626;7.530;2023-07-09T02:57:25;20.20;99.90
13203;DHT22;6666;51.626;7.530;2023-07-09T02:59:54;20.10;99.90
13203;DHT22;6666;51.626;7.530;2023-07-09T03:02:23;20.00;99.90
13203;DHT22;6666;51.626;7.530;2023-07-09T03:04:52;20.10;99.90
13203;DHT22;6666;51.626;7.530;2023-07-09T03:07:20;20.20;99.90
13203;DHT22;6666;51.626;7.530;2023-07-09T03:09:48;20.40;99.90
13203;DHT22;6666;51.626;7.530;2023-07-09T03:12:16;20.40;99.90
13203;DHT22;6666;51.626;7.530;2023-07-09T03:14:47;20.20;99.90
13203;DHT22;6666;51.626;7.530;2023-07-09T03:17:17;20.20;99.90
13203;DHT22;6666;51.626;7.530;2023-07-09T03:19:45;20.20;99.90
13203;DHT22;6666;51.626;7.530;2023-07-09T03:22:14;20.00;99.90
13203;DHT22;6666;51.626;7.530;2023-07-09T03:24:42;20.00;99.90
13203;DHT22;6666;51.626;7.530;2023-07-09T03:27:10;20.10;99.90
13203;DHT22;6666;51.626;7.530;2023-07-09T03:29:38;20.00;99.90
13203;DHT22;6666;51.626;7.530;2023-07-09T03:32:06;20.20;99.90
13203;DHT22;6666;51.626;7.530;2023-07-09T03:34:36;20.30;99.90
13203;DHT22;6666;51.626;7.530;2023-07-09T03:37:04;20.20;99.90
13203;DHT22;6666;51.626;7.530;2023-07-09T03:39:32;20.20;99.90
13203;DHT22;6666;51.626;7.530;2023-07-09T03:42:01;20.10;99.90
13203;DHT22;6666;51.626;7.530;2023-07-09T03:44:29;20.00;99.90
13203;DHT22;6666;51.626;7.530;2023-07-09T03:46:57;20.00;99.90
13203;DHT22;6666;51.626;7.530;2023-07-09T03:49:25;20.10;99.90
13203;DHT22;6666;51.626;7.530;2023-07-09T03:51:54;20.20;99.90
13203;DHT22;6666;51.626;7.530;2023-07-09T03:54:22;20.50;99.90
13203;DHT22;6666;51.626;7.530;2023-07-09T03:56:53;20.60;99.90
13203;DHT22;6666;51.626;7.530;2023-07-09T03:59:21;20.70;99.90
13203;DHT22;6666;51.626;7.530;2023-07-09T04:01:49;20.60;99.90
13203;DHT22;6666;51.626;7.530;2023-07-09T04:04:18;20.60;99.90
13203;DHT22;6666;51.626;7.530;2023-07-09T04:06:47;20.60;99.90
13203;DHT22;6666;51.626;7.530;2023-07-09T04:09:17;20.80;99.90
13203;DHT22;6666;51.626;7.530;2023-07-09T04:11:45;21.00;99.90
13203;DHT22;6666;51.626;7.530;2023-07-09T04:14:13;21.20;99.90
13203;DHT22;6666;51.626;7.530;2023-07-09T04:16:41;21.20;99.90
13203;DHT22;6666;51.626;7.530;2023-07-09T04:19:10;21.00;99.90
13203;DHT22;6666;51.626;7.530;2023-07-09T04:21:38;21.20;99.90
13203;DHT22;6666;51.626;7.530;2023-07-09T04:24:06;21.00;99.90
13203;DHT22;6666;51.626;7.530;2023-07-09T04:26:36;21.10;99.90
13203;DHT22;6666;51.626;7.530;2023-07-09T04:29:05;21.10;99.90
13203;DHT22;6666;51.626;7.530;2023-07-09T04:31:33;21.10;99.90
13203;DHT22;6666;51.626;7.530;2023-07-09T04:34:02;21.10;99.90
13203;DHT22;6666;51.626;7.530;2023-07-09T04:36:30;21.30;99.90
13203;DHT22;6666;51.626;7.530;2023-07-09T04:38:59;21.40;99.90
13203;DHT22;6666;51.626;7.530;2023-07-09T04:41:27;21.60;99.90
13203;DHT22;6666;51.626;7.530;2023-07-09T04:43:56;21.70;99.90
13203;DHT22;6666;51.626;7.530;2023-07-09T04:46:24;21.80;99.90
13203;DHT22;6666;51.626;7.530;2023-07-09T04:48:52;21.90;99.90
13203;DHT22;6666;51.626;7.530;2023-07-09T04:51:22;21.90;99.90
13203;DHT22;6666;51.626;7.530;2023-07-09T04:53:50;22.00;99.90
13203;DHT22;6666;51.626;7.530;2023-07-09T04:56:19;22.20;99.90
13203;DHT22;6666;51.626;7.530;2023-07-09T04:58:47;22.20;99.90
13203;DHT22;6666;51.626;7.530;2023-07-09T05:01:17;22.20;99.90
13203;DHT22;6666;51.626;7.530;2023-07-09T05:03:45;22.20;99.90
13203;DHT22;6666;51.626;7.530;2023-07-09T05:06:14;22.30;99.90
13203;DHT22;6666;51.626;7.530;2023-07-09T05:08:42;22.40;99.90
13203;DHT22;6666;51.626;7.530;2023-07-09T05:11:10;22.50;99.90
13203;DHT22;6666;51.626;7.530;2023-07-09T05:13:39;22.60;99.90
13203;DHT22;6666;51.626;7.530;2023-07-09T05:16:07;22.60;99.90
13203;DHT22;6666;51.626;7.530;2023-07-09T05:18:37;22.70;99.90
13203;DHT22;6666;51.626;7.530;2023-07-09T05:21:05;22.90;99.90
13203;DHT22;6666;51.626;7.530;2023-07-09T05:23:33;23.00;99.90
13203;DHT22;6666;51.626;7.530;2023-07-09T05:26:02;23.10;99.90
13203;DHT22;6666;51.626;7.530;2023-07-09T05:28:31;23.10;99.90
13203;DHT22;6666;51.626;7.530;2023-07-09T05:31:00;23.30;99.90
13203;DHT22;6666;51.626;7.530;2023-07-09T05:33:28;23.40;99.90
13203;DHT22;6666;51.626;7.530;2023-07-09T05:35:57;23.60;99.90
13203;DHT22;6666;51.626;7.530;2023-07-09T05:38:26;23.60;99.90
13203;DHT22;6666;51.626;7.530;2023-07-09T05:41:00;23.70;99.90
13203;DHT22;6666;51.626;7.530;2023-07-09T05:43:30;23.80;99.90
13203;DHT22;6666;51.626;7.530;2023-07-09T05:45:58;24.10;99.90
13203;DHT22;6666;51.626;7.530;2023-07-09T05:48:26;24.20;99.90
13203;DHT22;6666;51.626;7.530;2023-07-09T05:50:54;24.40;99.90
13203;DHT22;6666;51.626;7.530;2023-07-09T05:53:24;24.30;99.90
13203;DHT22;6666;51.626;7.530;2023-07-09T05:55:53;24.50;99.90
13203;DHT22;6666;51.626;7.530;2023-07-09T05:58:22;24.70;99.90
13203;DHT22;6666;51.626;7.530;2023-07-09T06:00:50;24.80;99.90
13203;DHT22;6666;51.626;7.530;2023-07-09T06:03:21;25.00;99.90
13203;DHT22;6666;51.626;7.530;2023-07-09T06:05:50;25.00;99.90
13203;DHT22;6666;51.626;7.530;2023-07-09T06:08:19;25.10;99.90
13203;DHT22;6666;51.626;7.530;2023-07-09T06:10:56;25.30;99.90
13203;DHT22;6666;51.626;7.530;2023-07-09T06:13:25;25.40;99.90
13203;DHT22;6666;51.626;7.530;2023-07-09T06:15:54;25.50;99.90
13203;DHT22;6666;51.626;7.530;2023-07-09T06:18:24;25.40;99.90
13203;DHT22;6666;51.626;7.530;2023-07-09T06:20:57;25.40;99.90
13203;DHT22;6666;51.626;7.530;2023-07-09T06:23:27;25.50;99.90
13203;DHT22;6666;51.626;7.530;2023-07-09T06:25:56;25.70;99.90
13203;DHT22;6666;51.626;7.530;2023-07-09T06:28:26;26.00;99.90
13203;DHT22;6666;51.626;7.530;2023-07-09T06:30:56;25.80;99.90
13203;DHT22;6666;51.626;7.530;2023-07-09T06:33:25;25.90;99.90
13203;DHT22;6666;51.626;7.530;2023-07-09T06:35:57;26.00;99.90
13203;DHT22;6666;51.626;7.530;2023-07-09T06:38:26;26.10;99.90
13203;DHT22;6666;51.626;7.530;2023-07-09T06:40:57;26.20;99.90
13203;DHT22;6666;51.626;7.530;2023-07-09T06:43:25;26.20;99.90
13203;DHT22;6666;51.626;7.530;2023-07-09T06:45:56;26.30;99.90
13203;DHT22;6666;51.626;7.530;2023-07-09T06:48:26;26.50;99.90
13203;DHT22;6666;51.626;7.530;2023-07-09T06:50:56;26.50;99.90
13203;DHT22;6666;51.626;7.530;2023-07-09T06:53:25;26.50;99.90
13203;DHT22;6666;51.626;7.530;2023-07-09T06:55:55;26.80;99.90
13203;DHT22;6666;51.626;7.530;2023-07-09T06:58:28;27.00;99.90
13203;DHT22;6666;51.626;7.530;2023-07-09T07:01:00;27.00;99.90
13203;DHT22;6666;51.626;7.530;2023-07-09T07:03:31;27.20;99.90
13203;DHT22;6666;51.626;7.530;2023-07-09T07:06:00;27.10;99.90
13203;DHT22;6666;51.626;7.530;2023-07-09T07:08:29;27.10;99.90
13203;DHT22;6666;51.626;7.530;2023-07-09T07:10:59;27.20;99.90
13203;DHT22;6666;51.626;7.530;2023-07-09T07:13:33;27.30;99.90
13203;DHT22;6666;51.626;7.530;2023-07-09T07:16:02;27.30;99.90
13203;DHT22;6666;51.626;7.530;2023-07-09T07:18:31;27.30;99.90
13203;DHT22;6666;51.626;7.530;2023-07-09T07:20:59;27.30;99.90
13203;DHT22;6666;51.626;7.530;2023-07-09T07:23:29;27.30;99.90
13203;DHT22;6666;51.626;7.530;2023-07-09T07:25:57;27.30;99.90
13203;DHT22;6666;51.626;7.530;2023-07-09T07:28:25;27.30;99.90
13203;DHT22;6666;51.626;7.530;2023-07-09T07:31:03;27.40;99.90
13203;DHT22;6666;51.626;7.530;2023-07-09T07:33:31;27.40;99.90
13203;DHT22;6666;51.626;7.530;2023-07-09T07:35:59;27.50;99.90
13203;DHT22;6666;51.626;7.530;2023-07-09T07:38:30;27.70;99.90
13203;DHT22;6666;51.626;7.530;2023-07-09T07:41:00;27.80;99.90
13203;DHT22;6666;51.626;7.530;2023-07-09T07:43:28;27.60;99.90
13203;DHT22;6666;51.626;7.530;2023-07-09T07:45:56;27.80;99.90
13203;DHT22;6666;51.626;7.530;2023-07-09T07:48:26;27.80;99.90
13203;DHT22;6666;51.626;7.530;2023-07-09T07:50:58;27.80;99.90
13203;DHT22;6666;51.626;7.530;2023-07-09T07:53:28;27.80;99.90
13203;DHT22;6666;51.626;7.530;2023-07-09T07:55:57;27.90;99.90
13203;DHT22;6666;51.626;7.530;2023-07-09T07:58:27;28.10;99.90
13203;DHT22;6666;51.626;7.530;2023-07-09T08:00:55;28.10;99.90
13203;DHT22;6666;51.626;7.530;2023-07-09T08:03:25;28.20;99.90
13203;DHT22;6666;51.626;7.530;2023-07-09T08:05:54;28.30;99.90
13203;DHT22;6666;51.626;7.530;2023-07-09T08:08:22;28.40;99.90
13203;DHT22;6666;51.626;7.530;2023-07-09T08:10:50;28.40;99.90
13203;DHT22;6666;51.626;7.530;2023-07-09T08:13:19;28.40;99.90
13203;DHT22;6666;51.626;7.530;2023-07-09T08:15:47;28.40;99.90
13203;DHT22;6666;51.626;7.530;2023-07-09T08:18:16;28.60;99.90
13203;DHT22;6666;51.626;7.530;2023-07-09T08:20:45;28.70;99.90
13203;DHT22;6666;51.626;7.530;2023-07-09T08:23:13;28.90;99.90
13203;DHT22;6666;51.626;7.530;2023-07-09T08:25:41;28.80;99.90
13203;DHT22;6666;51.626;7.530;2023-07-09T08:28:09;29.00;99.90
13203;DHT22;6666;51.626;7.530;2023-07-09T08:30:38;29.00;99.90
13203;DHT22;6666;51.626;7.530;2023-07-09T08:33:06;29.00;99.90
13203;DHT22;6666;51.626;7.530;2023-07-09T08:35:34;29.10;99.90
13203;DHT22;6666;51.626;7.530;2023-07-09T08:38:04;29.20;99.90
13203;DHT22;6666;51.626;7.530;2023-07-09T08:40:33;29.20;99.90
13203;DHT22;6666;51.626;7.530;2023-07-09T08:43:05;29.30;99.90
13203;DHT22;6666;51.626;7.530;2023-07-09T08:45:42;29.30;99.90
13203;DHT22;6666;51.626;7.530;2023-07-09T08:48:16;29.40;99.90
13203;DHT22;6666;51.626;7.530;2023-07-09T08:50:52;29.50;99.90
13203;DHT22;6666;51.626;7.530;2023-07-09T08:53:29;29.50;99.90
13203;DHT22;6666;51.626;7.530;2023-07-09T08:55:59;29.60;99.90
13203;DHT22;6666;51.626;7.530;2023-07-09T08:58:29;29.90;99.90
13203;DHT22;6666;51.626;7.530;2023-07-09T09:01:01;30.10;99.90
13203;DHT22;6666;51.626;7.530;2023-07-09T09:03:35;30.00;99.90
13203;DHT22;6666;51.626;7.530;2023-07-09T09:06:11;30.20;99.90
13203;DHT22;6666;51.626;7.530;2023-07-09T09:08:47;30.50;99.90
13203;DHT22;6666;51.626;7.530;2023-07-09T09:11:21;30.30;99.90
13203;DHT22;6666;51.626;7.530;2023-07-09T09:13:55;30.30;99.90
13203;DHT22;6666;51.626;7.530;2023-07-09T09:16:26;30.20;99.90
13203;DHT22;6666;51.626;7.530;2023-07-09T09:18:58;30.40;99.90
13203;DHT22;6666;51.626;7.530;2023-07-09T09:21:29;31.00;99.90
13203;DHT22;6666;51.626;7.530;2023-07-09T09:24:11;31.00;99.90
13203;DHT22;6666;51.626;7.530;2023-07-09T09:26:42;30.90;99.90
13203;DHT22;6666;51.626;7.530;2023-07-09T09:29:13;30.80;99.90
13203;DHT22;6666;51.626;7.530;2023-07-09T09:31:43;30.70;99.90
13203;DHT22;6666;51.626;7.530;2023-07-09T09:34:21;30.90;99.90
13203;DHT22;6666;51.626;7.530;2023-07-09T09:36:49;31.00;99.20
13203;DHT22;6666;51.626;7.530;2023-07-09T09:39:19;31.30;98.20
13203;DHT22;6666;51.626;7.530;2023-07-09T09:41:47;31.10;99.40
13203;DHT22;6666;51.626;7.530;2023-07-09T09:44:20;31.10;98.90
13203;DHT22;6666;51.626;7.530;2023-07-09T09:46:49;31.00;99.90
13203;DHT22;6666;51.626;7.530;2023-07-09T09:49:18;31.00;99.90
13203;DHT22;6666;51.626;7.530;2023-07-09T09:51:47;31.20;99.90
13203;DHT22;6666;51.626;7.530;2023-07-09T09:54:21;31.50;99.90
13203;DHT22;6666;51.626;7.530;2023-07-09T09:56:49;31.40;99.30
13203;DHT22;6666;51.626;7.530;2023-07-09T09:59:20;31.30;99.60
13203;DHT22;6666;51.626;7.530;2023-07-09T10:01:56;31.30;99.30
13203;DHT22;6666;51.626;7.530;2023-07-09T10:04:26;31.40;99.10
13203;DHT22;6666;51.626;7.530;2023-07-09T10:06:57;31.60;98.40
13203;DHT22;6666;51.626;7.530;2023-07-09T10:09:37;31.80;98.90
13203;DHT22;6666;51.626;7.530;2023-07-09T10:12:14;31.70;98.80
13203;DHT22;6666;51.626;7.530;2023-07-09T10:14:49;31.50;99.20
13203;DHT22;6666;51.626;7.530;2023-07-09T10:17:30;31.70;98.70
13203;DHT22;6666;51.626;7.530;2023-07-09T10:20:06;32.10;96.90
13203;DHT22;6666;51.626;7.530;2023-07-09T10:22:40;31.80;98.60
13203;DHT22;6666;51.626;7.530;2023-07-09T10:25:21;31.90;98.10
13203;DHT22;6666;51.626;7.530;2023-07-09T10:28:20;32.30;98.20
13203;DHT22;6666;51.626;7.530;2023-07-09T10:31:06;32.20;99.80
13203;DHT22;6666;51.626;7.530;2023-07-09T10:33:44;32.40;95.40
13203;DHT22;6666;51.626;7.530;2023-07-09T10:36:24;32.20;96.70
13203;DHT22;6666;51.626;7.530;2023-07-09T10:39:00;32.50;95.20
13203;DHT22;6666;51.626;7.530;2023-07-09T10:41:30;32.50;93.50
13203;DHT22;6666;51.626;7.530;2023-07-09T10:44:02;32.50;94.00
13203;DHT22;6666;51.626;7.530;2023-07-09T10:46:39;32.30;96.80
13203;DHT22;6666;51.626;7.530;2023-07-09T10:49:11;32.40;95.20
13203;DHT22;6666;51.626;7.530;2023-07-09T10:51:43;32.30;98.00
13203;DHT22;6666;51.626;7.530;2023-07-09T10:54:19;32.40;95.80
13203;DHT22;6666;51.626;7.530;2023-07-09T10:56:55;32.50;97.50
13203;DHT22;6666;51.626;7.530;2023-07-09T10:59:29;32.60;95.50
13203;DHT22;6666;51.626;7.530;2023-07-09T11:02:13;32.50;94.80
13203;DHT22;6666;51.626;7.530;2023-07-09T11:04:46;32.50;96.20
13203;DHT22;6666;51.626;7.530;2023-07-09T11:07:19;32.40;97.10
13203;DHT22;6666;51.626;7.530;2023-07-09T11:09:51;32.40;97.60
13203;DHT22;6666;51.626;7.530;2023-07-09T11:12:29;32.50;93.30
13203;DHT22;6666;51.626;7.530;2023-07-09T11:15:02;32.90;92.70
13203;DHT22;6666;51.626;7.530;2023-07-09T11:17:33;32.90;94.70
13203;DHT22;6666;51.626;7.530;2023-07-09T11:20:08;32.70;96.40
13203;DHT22;6666;51.626;7.530;2023-07-09T11:22:52;32.70;95.20
13203;DHT22;6666;51.626;7.530;2023-07-09T11:25:39;32.70;94.90
13203;DHT22;6666;51.626;7.530;2023-07-09T11:28:08;32.70;93.10
13203;DHT22;6666;51.626;7.530;2023-07-09T11:30:48;32.80;92.50
13203;DHT22;6666;51.626;7.530;2023-07-09T11:33:19;32.60;92.60
13203;DHT22;6666;51.626;7.530;2023-07-09T11:35:54;32.50;93.30
13203;DHT22;6666;51.626;7.530;2023-07-09T11:38:24;32.40;92.80
13203;DHT22;6666;51.626;7.530;2023-07-09T11:40:54;32.40;92.60
13203;DHT22;6666;51.626;7.530;2023-07-09T11:43:31;32.70;92.90
13203;DHT22;6666;51.626;7.530;2023-07-09T11:46:08;33.00;95.40
13203;DHT22;6666;51.626;7.530;2023-07-09T11:48:41;33.30;92.00
13203;DHT22;6666;51.626;7.530;2023-07-09T11:51:14;33.20;90.60
13203;DHT22;6666;51.626;7.530;2023-07-09T11:53:47;32.90;91.60
13203;DHT22;6666;51.626;7.530;2023-07-09T11:56:18;32.90;93.60
13203;DHT22;6666;51.626;7.530;2023-07-09T11:58:50;33.40;91.10
13203;DHT22;6666;51.626;7.530;2023-07-09T12:01:22;33.10;91.90
13203;DHT22;6666;51.626;7.530;2023-07-09T12:03:53;33.30;92.20
13203;DHT22;6666;51.626;7.530;2023-07-09T12:06:26;33.40;91.20
13203;DHT22;6666;51.626;7.530;2023-07-09T12:08:55;33.30;94.10
13203;DHT22;6666;51.626;7.530;2023-07-09T12:11:25;33.10;90.90
13203;DHT22;6666;51.626;7.530;2023-07-09T12:14:00;33.00;91.80
13203;DHT22;6666;51.626;7.530;2023-07-09T12:16:31;33.10;92.50
13203;DHT22;6666;51.626;7.530;2023-07-09T12:19:00;33.30;90.90
13203;DHT22;6666;51.626;7.530;2023-07-09T12:21:31;33.70;91.00
13203;DHT22;6666;51.626;7.530;2023-07-09T12:24:00;33.70;88.30
13203;DHT22;6666;51.626;7.530;2023-07-09T12:26:31;33.70;87.40
13203;DHT22;6666;51.626;7.530;2023-07-09T12:28:59;33.70;91.90
13203;DHT22;6666;51.626;7.530;2023-07-09T12:31:29;33.60;90.60
13203;DHT22;6666;51.626;7.530;2023-07-09T12:34:00;33.40;89.30
13203;DHT22;6666;51.626;7.530;2023-07-09T12:36:28;33.30;89.80
13203;DHT22;6666;51.626;7.530;2023-07-09T12:39:00;33.30;90.80
13203;DHT22;6666;51.626;7.530;2023-07-09T12:41:35;33.40;89.30
13203;DHT22;6666;51.626;7.530;2023-07-09T12:44:04;33.60;90.20
13203;DHT22;6666;51.626;7.530;2023-07-09T12:46:33;33.80;89.60
13203;DHT22;6666;51.626;7.530;2023-07-09T12:49:05;33.80;88.70
13203;DHT22;6666;51.626;7.530;2023-07-09T12:51:37;33.90;90.00
13203;DHT22;6666;51.626;7.530;2023-07-09T12:54:13;33.90;89.40
13203;DHT22;6666;51.626;7.530;2023-07-09T12:56:42;33.90;87.70
13203;DHT22;6666;51.626;7.530;2023-07-09T12:59:17;33.60;87.40
13203;DHT22;6666;51.626;7.530;2023-07-09T13:01:50;33.40;87.30
13203;DHT22;6666;51.626;7.530;2023-07-09T13:04:20;33.20;90.10
13203;DHT22;6666;51.626;7.530;2023-07-09T13:06:51;33.30;87.10
13203;DHT22;6666;51.626;7.530;2023-07-09T13:09:24;33.00;90.50
13203;DHT22;6666;51.626;7.530;2023-07-09T13:11:52;33.00;90.00
13203;DHT22;6666;51.626;7.530;2023-07-09T13:14:24;33.20;90.60
13203;DHT22;6666;51.626;7.530;2023-07-09T13:16:52;33.30;90.50
13203;DHT22;6666;51.626;7.530;2023-07-09T13:19:22;33.30;91.20
13203;DHT22;6666;51.626;7.530;2023-07-09T13:21:52;33.40;86.70
13203;DHT22;6666;51.626;7.530;2023-07-09T13:24:22;33.60;86.00
13203;DHT22;6666;51.626;7.530;2023-07-09T13:26:51;33.50;86.80
13203;DHT22;6666;51.626;7.530;2023-07-09T13:29:20;33.20;91.20
13203;DHT22;6666;51.626;7.530;2023-07-09T13:31:49;33.20;90.00
13203;DHT22;6666;51.626;7.530;2023-07-09T13:34:20;33.40;88.90
13203;DHT22;6666;51.626;7.530;2023-07-09T13:36:50;33.40;90.00
13203;DHT22;6666;51.626;7.530;2023-07-09T13:39:20;33.70;85.10
13203;DHT22;6666;51.626;7.530;2023-07-09T13:41:50;33.60;90.40
13203;DHT22;6666;51.626;7.530;2023-07-09T13:44:23;33.40;88.80
13203;DHT22;6666;51.626;7.530;2023-07-09T13:46:52;33.40;87.40
13203;DHT22;6666;51.626;7.530;2023-07-09T13:49:23;33.30;84.40
13203;DHT22;6666;51.626;7.530;2023-07-09T13:51:54;33.20;85.90
13203;DHT22;6666;51.626;7.530;2023-07-09T13:54:28;33.20;90.50
13203;DHT22;6666;51.626;7.530;2023-07-09T13:57:02;33.20;85.80
13203;DHT22;6666;51.626;7.530;2023-07-09T13:59:31;33.10;89.10
13203;DHT22;6666;51.626;7.530;2023-07-09T14:01:59;33.00;89.00
13203;DHT22;6666;51.626;7.530;2023-07-09T14:04:31;33.00;83.90
13203;DHT22;6666;51.626;7.530;2023-07-09T14:07:00;32.90;88.30
13203;DHT22;6666;51.626;7.530;2023-07-09T14:09:29;32.90;87.90
13203;DHT22;6666;51.626;7.530;2023-07-09T14:11:57;33.00;86.40
13203;DHT22;6666;51.626;7.530;2023-07-09T14:14:29;32.90;88.50
13203;DHT22;6666;51.626;7.530;2023-07-09T14:16:58;33.00;85.70
13203;DHT22;6666;51.626;7.530;2023-07-09T14:19:27;33.00;90.30
13203;DHT22;6666;51.626;7.530;2023-07-09T14:21:55;32.80;90.30
13203;DHT22;6666;51.626;7.530;2023-07-09T14:24:27;32.80;88.30
13203;DHT22;6666;51.626;7.530;2023-07-09T14:26:57;32.70;90.00
13203;DHT22;6666;51.626;7.530;2023-07-09T14:29:25;32.60;91.00
13203;DHT22;6666;51.626;7.530;2023-07-09T14:31:54;32.50;90.00
13203;DHT22;6666;51.626;7.530;2023-07-09T14:34:27;32.40;90.20
13203;DHT22;6666;51.626;7.530;2023-07-09T14:36:58;32.30;90.20
13203;DHT22;6666;51.626;7.530;2023-07-09T14:39:28;32.00;90.30
13203;DHT22;6666;51.626;7.530;2023-07-09T14:41:57;31.80;90.90
13203;DHT22;6666;51.626;7.530;2023-07-09T14:44:28;31.70;90.90
13203;DHT22;6666;51.626;7.530;2023-07-09T14:46:58;31.60;89.70
13203;DHT22;6666;51.626;7.530;2023-07-09T14:49:27;31.50;90.50
13203;DHT22;6666;51.626;7.530;2023-07-09T14:51:56;31.50;90.40
13203;DHT22;6666;51.626;7.530;2023-07-09T14:54:27;31.30;90.50
13203;DHT22;6666;51.626;7.530;2023-07-09T14:56:57;31.20;92.00
13203;DHT22;6666;51.626;7.530;2023-07-09T14:59:25;31.00;91.10
13203;DHT22;6666;51.626;7.530;2023-07-09T15:01:55;30.90;91.80
13203;DHT22;6666;51.626;7.530;2023-07-09T15:04:28;30.80;92.40
13203;DHT22;6666;51.626;7.530;2023-07-09T15:06:57;30.70;92.50
13203;DHT22;6666;51.626;7.530;2023-07-09T15:09:28;30.50;93.70
13203;DHT22;6666;51.626;7.530;2023-07-09T15:11:58;30.40;94.10
13203;DHT22;6666;51.626;7.530;2023-07-09T15:14:27;30.40;94.40
13203;DHT22;6666;51.626;7.530;2023-07-09T15:16:55;30.40;93.80
13203;DHT22;6666;51.626;7.530;2023-07-09T15:19:27;30.30;94.30
13203;DHT22;6666;51.626;7.530;2023-07-09T15:21:56;30.10;95.60
13203;DHT22;6666;51.626;7.530;2023-07-09T15:24:28;30.00;95.90
13203;DHT22;6666;51.626;7.530;2023-07-09T15:26:58;29.70;97.00
13203;DHT22;6666;51.626;7.530;2023-07-09T15:29:28;29.20;99.00
13203;DHT22;6666;51.626;7.530;2023-07-09T15:31:58;28.70;99.90
13203;DHT22;6666;51.626;7.530;2023-07-09T15:34:27;28.30;99.90
13203;DHT22;6666;51.626;7.530;2023-07-09T15:36:55;28.10;99.90
13203;DHT22;6666;51.626;7.530;2023-07-09T15:39:23;27.40;99.90
13203;DHT22;6666;51.626;7.530;2023-07-09T15:41:54;26.60;99.90
13203;DHT22;6666;51.626;7.530;2023-07-09T15:44:22;25.80;99.90
13203;DHT22;6666;51.626;7.530;2023-07-09T15:46:53;25.30;99.90
13203;DHT22;6666;51.626;7.530;2023-07-09T15:49:22;24.60;99.90
13203;DHT22;6666;51.626;7.530;2023-07-09T15:51:51;24.00;99.90
13203;DHT22;6666;51.626;7.530;2023-07-09T15:54:21;23.80;99.90
13203;DHT22;6666;51.626;7.530;2023-07-09T15:56:50;23.40;99.90
13203;DHT22;6666;51.626;7.530;2023-07-09T15:59:25;23.20;99.90
13203;DHT22;6666;51.626;7.530;2023-07-09T16:01:54;23.20;99.90
13203;DHT22;6666;51.626;7.530;2023-07-09T16:04:23;23.30;99.90
13203;DHT22;6666;51.626;7.530;2023-07-09T16:06:52;23.10;99.90
13203;DHT22;6666;51.626;7.530;2023-07-09T16:09:21;23.00;99.90
13203;DHT22;6666;51.626;7.530;2023-07-09T16:11:51;23.10;99.90
13203;DHT22;6666;51.626;7.530;2023-07-09T16:14:26;22.80;99.90